Time;durP1;ratioP1;P1;durP2;ratioP2;P2;SDS_P1;SDS_P2;PMS_P1;PMS_P2;Temp;Humidity;BMP_temperature;BMP_pressure;BME280_temperature;BME280_humidity;BME280_pressure;Samples;Min_cycle;Max_cycle;Signal;HPM_P1;HPM_P2
2020/12/26 00:00:39;;;;;;;22.93;18.63;;;;;;;3.55;100.00;96101.47;5036500;28;20206;-92
2020/12/26 00:03:07;;;;;;;23.87;19.13;;;;;;;3.62;100.00;96095.78;5036154;28;20687;-93
2020/12/26 00:05:36;;;;;;;25.57;19.87;;;;;;;3.57;100.00;96094.38;5035902;28;20997;-90
2020/12/26 00:08:03;;;;;;;27.47;20.10;;;;;;;3.67;100.00;96084.09;5036348;28;20608;-93
2020/12/26 00:10:30;;;;;;;27.07;19.93;;;;;;;3.71;100.00;96084.69;5036233;28;20222;-92
2020/12/26 00:12:57;;;;;;;27.33;20.23;;;;;;;3.67;100.00;96086.69;5035917;28;20234;-91
2020/12/26 00:15:24;;;;;;;28.43;22.00;;;;;;;3.66;100.00;96086.81;5036076;28;20202;-92
2020/12/26 00:17:50;;;;;;;30.03;20.53;;;;;;;3.75;100.00;96088.69;5035703;28;20199;-93
2020/12/26 00:20:19;;;;;;;28.50;21.73;;;;;;;3.78;100.00;96091.88;5035768;28;20245;-91
2020/12/26 00:22:46;;;;;;;32.00;23.60;;;;;;;3.53;100.00;96103.38;5036017;28;20209;-93
2020/12/26 00:25:13;;;;;;;36.40;26.20;;;;;;;3.64;100.00;96099.06;5035555;28;20320;-92
2020/12/26 00:27:40;;;;;;;37.03;25.13;;;;;;;3.48;100.00;96100.28;5035763;28;20202;-92
2020/12/26 00:30:07;;;;;;;36.30;25.47;;;;;;;3.43;100.00;96117.16;5034490;28;20230;-93
2020/12/26 00:32:34;;;;;;;30.67;22.33;;;;;;;3.52;100.00;96114.69;5036080;28;20198;-93
2020/12/26 00:35:01;;;;;;;27.53;23.30;;;;;;;3.44;100.00;96109.28;5035579;28;20199;-91
2020/12/26 00:37:29;;;;;;;30.10;22.07;;;;;;;3.36;100.00;96103.84;5035760;28;20203;-92
2020/12/26 00:39:55;;;;;;;26.50;19.43;;;;;;;3.41;100.00;96106.09;5035317;28;20238;-93
2020/12/26 00:42:22;;;;;;;24.30;19.63;;;;;;;3.48;100.00;96109.84;5035447;28;20233;-92
2020/12/26 00:44:49;;;;;;;25.67;20.90;;;;;;;3.66;100.00;96103.22;5035748;28;20595;-94
2020/12/26 00:47:16;;;;;;;26.60;19.17;;;;;;;3.65;100.00;96109.38;5035255;28;20290;-91
2020/12/26 00:49:43;;;;;;;27.27;19.23;;;;;;;3.58;100.00;96113.41;5035152;28;20275;-92
2020/12/26 00:52:09;;;;;;;36.47;23.47;;;;;;;3.66;100.00;96105.00;5035766;28;20691;-92
2020/12/26 00:54:41;;;;;;;42.67;29.13;;;;;;;3.69;100.00;96112.56;5035031;28;20223;-92
2020/12/26 00:57:08;;;;;;;32.80;25.67;;;;;;;3.52;100.00;96109.50;5035254;28;20229;-93
2020/12/26 00:59:34;;;;;;;29.07;22.87;;;;;;;3.61;100.00;96113.16;5035547;28;20190;-92
2020/12/26 01:02:01;;;;;;;37.67;25.53;;;;;;;3.72;100.00;96114.91;5035449;28;20201;-91
2020/12/26 01:04:28;;;;;;;29.97;22.60;;;;;;;3.66;100.00;96118.81;5034852;28;20206;-92
2020/12/26 01:06:55;;;;;;;25.50;19.13;;;;;;;3.56;100.00;96115.28;5035329;28;20203;-93
2020/12/26 01:09:22;;;;;;;25.53;18.47;;;;;;;3.79;100.00;96106.50;5035707;28;20280;-93
2020/12/26 01:11:51;;;;;;;21.83;17.30;;;;;;;3.73;100.00;96107.00;5034875;28;20199;-91
2020/12/26 01:14:18;;;;;;;21.83;16.90;;;;;;;3.73;100.00;96103.56;5034736;28;20191;-92
2020/12/26 01:16:49;;;;;;;28.33;21.70;;;;;;;3.77;100.00;96104.97;5034674;28;20205;-92
2020/12/26 01:19:16;;;;;;;55.53;41.50;;;;;;;3.55;100.00;96104.06;5035120;28;20282;-92
2020/12/26 01:21:43;;;;;;;31.53;21.77;;;;;;;3.49;100.00;96108.91;5034790;28;20199;-93
2020/12/26 01:24:10;;;;;;;29.50;21.37;;;;;;;3.40;100.00;96113.06;5034577;28;20270;-93
2020/12/26 01:26:37;;;;;;;34.40;27.67;;;;;;;3.40;100.00;96113.06;5034955;28;20607;-93
2020/12/26 01:29:05;;;;;;;27.77;21.10;;;;;;;3.55;100.00;96114.44;5034717;28;20305;-91
2020/12/26 01:31:32;;;;;;;29.90;22.77;;;;;;;3.77;100.00;96107.56;5034449;28;20199;-91
2020/12/26 01:33:58;;;;;;;27.33;20.17;;;;;;;3.83;100.00;96111.47;5034559;28;20194;-91
2020/12/26 01:36:25;;;;;;;28.27;19.80;;;;;;;3.92;100.00;96113.34;5034305;28;20206;-93
2020/12/26 01:38:53;;;;;;;24.03;19.17;;;;;;;3.88;100.00;96112.78;5034474;28;20730;-92
2020/12/26 01:41:19;;;;;;;27.57;19.40;;;;;;;3.88;100.00;96112.78;5034407;28;20586;-91
2020/12/26 01:43:56;;;;;;;24.93;19.07;;;;;;;3.88;100.00;96104.13;5034570;28;20199;-93
2020/12/26 01:46:28;;;;;;;25.07;17.97;;;;;;;3.76;100.00;96108.53;5034225;28;20260;-93
2020/12/26 01:48:56;;;;;;;31.40;24.10;;;;;;;3.74;100.00;96116.47;5034479;28;20211;-92
2020/12/26 01:51:25;;;;;;;29.13;23.63;;;;;;;3.85;100.00;96115.63;5034065;28;20244;-93
2020/12/26 01:53:53;;;;;;;26.53;19.90;;;;;;;3.80;100.00;96104.72;5034066;28;20210;-92
2020/12/26 01:56:22;;;;;;;25.63;21.60;;;;;;;3.94;100.00;96108.84;5034131;28;20602;-93
2020/12/26 01:58:49;;;;;;;27.97;22.00;;;;;;;3.89;100.00;96109.22;5033974;28;20691;-92
2020/12/26 02:01:19;;;;;;;29.03;22.07;;;;;;;3.87;100.00;96098.09;5034007;28;20198;-93
2020/12/26 02:03:47;;;;;;;28.50;21.30;;;;;;;3.90;100.00;96089.25;5034474;28;20198;-92
2020/12/26 02:06:14;;;;;;;32.37;25.00;;;;;;;4.01;100.00;96086.59;5034206;28;20225;-94
2020/12/26 02:08:41;;;;;;;26.47;21.30;;;;;;;3.97;100.00;96080.81;5033811;28;20281;-92
2020/12/26 02:11:08;;;;;;;25.83;21.60;;;;;;;3.89;100.00;96085.00;5033647;28;20206;-93
2020/12/26 02:13:35;;;;;;;27.83;20.63;;;;;;;3.71;100.00;96072.50;5033741;28;20206;-93
2020/12/26 02:16:07;;;;;;;27.13;21.17;;;;;;;3.55;100.00;96070.28;5034037;28;20317;-92
2020/12/26 02:18:34;;;;;;;22.53;18.83;;;;;;;3.49;100.00;96065.56;5033683;28;20198;-93
2020/12/26 02:21:02;;;;;;;23.03;18.47;;;;;;;3.45;100.00;96084.94;5033959;28;20630;-93
2020/12/26 02:23:30;;;;;;;22.43;17.57;;;;;;;3.40;100.00;96087.06;5033272;28;20242;-93
2020/12/26 02:25:58;;;;;;;21.33;17.10;;;;;;;3.43;100.00;96091.19;5033464;28;20687;-92
2020/12/26 02:28:25;;;;;;;24.83;19.23;;;;;;;3.47;100.00;96090.84;5033379;28;20234;-92
2020/12/26 02:30:52;;;;;;;26.53;21.10;;;;;;;3.51;100.00;96094.03;5033643;28;20353;-92
2020/12/26 02:33:20;;;;;;;24.70;19.10;;;;;;;3.57;100.00;96090.97;5033549;28;20704;-92
2020/12/26 02:35:47;;;;;;;23.47;18.33;;;;;;;3.60;100.00;96084.69;5033589;28;20665;-93
2020/12/26 02:38:14;;;;;;;22.70;19.03;;;;;;;3.65;100.00;96098.16;5033526;28;20202;-92
2020/12/26 02:40:42;;;;;;;26.93;19.53;;;;;;;3.67;100.00;96094.50;5033183;28;20237;-93
2020/12/26 02:43:19;;;;;;;23.87;18.73;;;;;;;3.66;100.00;96092.00;5015742;28;20199;-92
2020/12/26 02:45:47;;;;;;;24.10;17.87;;;;;;;3.68;100.00;96103.94;5033149;28;20190;-93
2020/12/26 02:48:14;;;;;;;22.07;17.77;;;;;;;3.66;100.00;96094.59;5033164;28;20352;-91
2020/12/26 02:50:41;;;;;;;20.40;17.53;;;;;;;3.74;100.00;96100.88;5033299;28;20227;-93
2020/12/26 02:53:07;;;;;;;20.73;18.20;;;;;;;3.91;100.00;96096.91;5033069;28;20625;-92
2020/12/26 02:55:34;;;;;;;26.77;17.53;;;;;;;3.88;100.00;96097.19;5033583;28;20190;-91
2020/12/26 02:58:01;;;;;;;23.83;19.03;;;;;;;3.81;100.00;96107.22;5033073;28;20223;-92
2020/12/26 03:00:29;;;;;;;24.83;18.07;;;;;;;3.85;100.00;96107.81;5033342;28;20217;-93
2020/12/26 03:02:57;;;;;;;22.57;18.37;;;;;;;4.08;100.00;96113.78;5032923;28;20238;-92
2020/12/26 03:05:24;;;;;;;23.43;19.97;;;;;;;4.09;100.00;96105.03;5033106;28;20325;-92
2020/12/26 03:07:53;;;;;;;24.93;18.70;;;;;;;4.28;100.00;96096.56;5033281;28;20233;-93
2020/12/26 03:10:20;;;;;;;24.87;18.57;;;;;;;4.46;100.00;96097.66;5032963;28;20722;-92
2020/12/26 03:12:47;;;;;;;26.00;18.13;;;;;;;4.44;100.00;96094.38;5032870;28;20289;-92
2020/12/26 03:15:14;;;;;;;21.17;16.60;;;;;;;4.41;100.00;96080.78;5032931;28;20199;-93
2020/12/26 03:17:42;;;;;;;23.60;16.80;;;;;;;4.41;100.00;96076.41;5033008;28;20619;-92
2020/12/26 03:20:09;;;;;;;17.97;13.50;;;;;;;4.38;100.00;96089.66;5033064;28;20253;-92
2020/12/26 03:22:36;;;;;;;19.03;16.20;;;;;;;4.33;100.00;96099.63;5033315;28;20203;-93
2020/12/26 03:25:03;;;;;;;18.87;14.90;;;;;;;4.05;100.00;96096.66;5033207;28;20288;-92
2020/12/26 03:27:30;;;;;;;18.53;15.13;;;;;;;4.12;100.00;96093.53;5032925;28;20188;-90
2020/12/26 03:29:57;;;;;;;20.33;15.77;;;;;;;4.14;100.00;96097.69;5032676;28;20261;-90
2020/12/26 03:32:24;;;;;;;19.27;15.97;;;;;;;4.09;100.00;96109.38;5032570;28;20199;-92
2020/12/26 03:34:52;;;;;;;19.73;15.70;;;;;;;4.08;100.00;96113.78;5032652;28;20221;-91
2020/12/26 03:37:18;;;;;;;19.57;16.03;;;;;;;4.14;100.00;96104.66;5032851;28;20207;-90
2020/12/26 03:39:45;;;;;;;19.80;15.77;;;;;;;4.09;100.00;96105.03;5032740;28;20206;-91
2020/12/26 03:42:13;;;;;;;20.73;16.23;;;;;;;4.10;100.00;96111.88;5033133;28;20245;-91
2020/12/26 03:44:41;;;;;;;21.80;15.23;;;;;;;4.10;100.00;96113.66;5032689;28;20668;-91
2020/12/26 03:47:09;;;;;;;18.93;14.27;;;;;;;4.13;100.00;96118.63;5032598;28;20668;-91
2020/12/26 03:49:36;;;;;;;19.80;16.17;;;;;;;4.24;100.00;96121.19;5032426;28;20266;-91
2020/12/26 03:52:04;;;;;;;20.23;14.87;;;;;;;4.29;100.00;96119.03;5032377;28;20676;-92
2020/12/26 03:54:31;;;;;;;18.87;14.47;;;;;;;4.28;100.00;96122.59;5032678;28;20278;-92
2020/12/26 03:56:57;;;;;;;18.50;13.53;;;;;;;4.31;100.00;96118.91;5032724;28;20202;-90
2020/12/26 03:59:25;;;;;;;16.90;13.63;;;;;;;4.19;100.00;96126.75;5033105;28;20293;-91
2020/12/26 04:01:52;;;;;;;19.43;14.57;;;;;;;4.07;100.00;96122.53;5032854;28;20199;-91
2020/12/26 04:04:18;;;;;;;22.83;18.20;;;;;;;3.97;100.00;96130.22;5032848;28;20237;-90
2020/12/26 04:06:45;;;;;;;23.90;21.07;;;;;;;3.98;100.00;96141.44;5036052;28;20199;-91
2020/12/26 04:09:14;;;;;;;20.03;16.97;;;;;;;4.08;100.00;96137.19;5035917;28;20273;-90
2020/12/26 04:11:42;;;;;;;19.93;16.57;;;;;;;4.17;100.00;96133.84;5035906;28;20195;-91
2020/12/26 04:14:09;;;;;;;21.60;16.27;;;;;;;4.32;100.00;96123.16;5036071;28;20202;-90
2020/12/26 04:16:36;;;;;;;25.23;16.53;;;;;;;4.42;100.00;96131.88;5035843;28;20203;-90
2020/12/26 04:19:02;;;;;;;21.40;15.77;;;;;;;4.27;100.00;96132.16;5035963;28;20194;-90
2020/12/26 04:21:29;;;;;;;18.67;14.70;;;;;;;4.30;100.00;96128.50;5035655;28;20198;-91
2020/12/26 04:23:56;;;;;;;14.37;12.10;;;;;;;4.31;100.00;96119.75;5035651;28;20246;-91
2020/12/26 04:26:24;;;;;;;17.50;15.07;;;;;;;4.24;100.00;96110.78;5035691;28;20786;-91
2020/12/26 04:28:52;;;;;;;19.90;15.80;;;;;;;4.19;100.00;96108.56;5035606;28;20229;-91
2020/12/26 04:31:19;;;;;;;28.20;20.20;;;;;;;4.12;100.00;96099.59;5035743;28;20198;-89
2020/12/26 04:33:46;;;;;;;27.87;21.50;;;;;;;4.02;100.00;96101.28;5035768;28;20233;-92
2020/12/26 04:36:14;;;;;;;17.33;15.03;;;;;;;4.20;100.00;96106.78;5035720;28;20286;-91
2020/12/26 04:38:40;;;;;;;19.63;15.30;;;;;;;4.37;100.00;96111.44;5035473;28;20202;-90
2020/12/26 04:41:07;;;;;;;19.30;15.67;;;;;;;4.56;100.00;96117.75;5035515;28;20202;-92
2020/12/26 04:43:35;;;;;;;18.00;15.83;;;;;;;4.43;100.00;96117.91;5035248;28;20209;-91
2020/12/26 04:46:12;;;;;;;19.63;16.07;;;;;;;4.12;100.00;96116.94;5035646;28;20199;-90
2020/12/26 04:48:47;;;;;;;32.60;24.20;;;;;;;4.15;100.00;96120.13;5035650;28;20191;-90
2020/12/26 04:51:17;;;;;;;25.93;22.60;;;;;;;4.02;100.00;96115.09;5035859;28;20237;-90
2020/12/26 04:53:45;;;;;;;38.13;25.77;;;;;;;3.99;100.00;96124.94;5035182;28;20686;-91
2020/12/26 04:56:20;;;;;;;23.47;19.53;;;;;;;4.02;100.00;96127.28;5035540;28;20245;-92
2020/12/26 04:58:49;;;;;;;47.10;33.10;;;;;;;4.01;100.00;96123.00;5035980;28;20256;-91
2020/12/26 05:01:16;;;;;;;20.50;17.17;;;;;;;3.97;100.00;96127.63;5035067;28;20650;-90
2020/12/26 05:03:45;;;;;;;30.87;24.40;;;;;;;4.12;100.00;96129.97;5035409;28;20249;-91
2020/12/26 05:06:14;;;;;;;26.30;20.53;;;;;;;4.04;100.00;96135.78;5035142;28;20230;-91
2020/12/26 05:08:41;;;;;;;27.93;23.27;;;;;;;4.10;100.00;96135.28;5035186;28;20233;-91
2020/12/26 05:11:08;;;;;;;27.67;20.90;;;;;;;4.09;100.00;96141.44;5035163;28;20272;-92
2020/12/26 05:13:42;;;;;;;26.20;19.50;;;;;;;4.16;100.00;96152.19;5035156;28;20617;-92
2020/12/26 05:16:10;;;;;;;21.47;17.67;;;;;;;4.07;100.00;96145.13;5034337;28;20640;-93
2020/12/26 05:18:38;;;;;;;24.13;16.43;;;;;;;4.10;100.00;96152.69;5034829;28;20198;-92
2020/12/26 05:21:05;;;;;;;25.07;20.87;;;;;;;4.16;100.00;96147.81;5034917;28;20210;-92
2020/12/26 05:23:32;;;;;;;90.37;63.23;;;;;;;3.94;100.00;96140.88;5034536;28;20238;-92
2020/12/26 05:25:59;;;;;;;42.50;35.00;;;;;;;3.79;100.00;96140.31;5034703;28;20187;-92
2020/12/26 05:28:31;;;;;;;28.87;22.30;;;;;;;3.72;100.00;96138.31;5034864;28;20368;-92
2020/12/26 05:30:58;;;;;;;29.77;24.07;;;;;;;3.74;100.00;96141.59;5034973;28;20242;-92
2020/12/26 05:33:30;;;;;;;27.93;22.40;;;;;;;3.76;100.00;96130.16;5034673;28;20672;-91
2020/12/26 05:36:05;;;;;;;18.93;14.40;;;;;;;3.79;100.00;96124.72;5034788;28;20661;-91
2020/12/26 05:38:32;;;;;;;18.07;15.10;;;;;;;3.90;100.00;96134.25;5034844;28;20186;-93
2020/12/26 05:41:00;;;;;;;35.87;26.23;;;;;;;4.03;100.00;96140.16;5034578;28;20201;-91
2020/12/26 05:43:28;;;;;;;36.90;28.73;;;;;;;4.04;100.00;96134.00;5034719;28;20202;-91
2020/12/26 05:45:55;;;;;;;37.50;29.97;;;;;;;3.92;100.00;96131.56;5034090;28;20209;-91
2020/12/26 05:48:23;;;;;;;35.90;26.87;;;;;;;3.93;100.00;96139.22;5034189;28;20253;-91
2020/12/26 05:50:57;;;;;;;25.17;19.90;;;;;;;3.84;100.00;96137.34;5033969;28;20309;-91
2020/12/26 05:53:25;;;;;;;19.80;15.80;;;;;;;3.92;100.00;96145.38;5034228;28;20248;-91
2020/12/26 05:55:53;;;;;;;19.33;16.33;;;;;;;4.02;100.00;96146.31;5034148;28;20232;-91
2020/12/26 05:58:21;;;;;;;24.10;16.23;;;;;;;4.11;100.00;96151.72;5034130;28;20202;-92
2020/12/26 06:00:48;;;;;;;19.17;16.07;;;;;;;4.19;100.00;96142.38;5034213;28;20195;-92
2020/12/26 06:03:26;;;;;;;19.60;15.60;;;;;;;4.25;100.00;96143.66;5034093;28;20199;-91
2020/12/26 06:05:55;;;;;;;19.20;15.83;;;;;;;4.27;100.00;96147.78;5033918;28;20193;-92
2020/12/26 06:08:23;;;;;;;15.70;13.00;;;;;;;4.28;100.00;96146.00;5034001;28;20198;-92
2020/12/26 06:10:52;;;;;;;41.10;30.97;;;;;;;4.25;100.00;96149.66;5034344;28;20230;-92
2020/12/26 06:13:21;;;;;;;62.33;41.87;;;;;;;4.22;100.00;96149.09;5034495;28;20687;-92
2020/12/26 06:18:42;;;;;;;20.70;16.63;;;;;;;4.47;100.00;96143.59;5019367;28;20199;-92
2020/12/26 06:24:32;;;;;;;16.83;13.50;;;;;;;4.51;100.00;96162.38;5032985;28;20318;-92
2020/12/26 06:27:09;;;;;;;16.43;13.60;;;;;;;4.43;100.00;96162.97;5034327;28;20182;-92
2020/12/26 06:29:52;;;;;;;31.97;25.07;;;;;;;4.30;100.00;96157.13;5033483;28;20211;-92
2020/12/26 06:32:22;;;;;;;34.53;27.33;;;;;;;3.98;100.00;96157.06;5035368;28;20206;-92
2020/12/26 06:34:52;;;;;;;29.57;25.77;;;;;;;4.18;100.00;96155.50;5032875;28;20206;-92
2020/12/26 06:40:28;;;;;;;19.13;15.43;;;;;;;4.55;100.00;96168.16;5046498;28;20759;-92
2020/12/26 06:42:55;;;;;;;25.97;20.80;;;;;;;4.45;100.00;96162.88;5034943;28;20190;-91
2020/12/26 06:45:45;;;;;;;25.73;19.10;;;;;;;4.46;100.00;96170.53;5035283;28;20207;-92
2020/12/26 06:48:34;;;;;;;23.83;19.40;;;;;;;4.52;100.00;96175.25;5048248;28;20208;-94
2020/12/26 06:51:23;;;;;;;26.33;22.60;;;;;;;4.35;100.00;96167.16;5054818;28;20241;-93
2020/12/26 06:53:50;;;;;;;28.40;24.10;;;;;;;4.30;100.00;96175.34;5054270;28;20217;-91
2020/12/26 06:56:48;;;;;;;27.53;22.60;;;;;;;4.30;100.00;96198.75;5054480;28;20190;-92
2020/12/26 06:59:16;;;;;;;43.17;35.77;;;;;;;4.34;100.00;96192.34;5053800;28;20248;-92
2020/12/26 07:01:44;;;;;;;38.63;32.93;;;;;;;4.45;100.00;96194.91;5053527;28;20194;-93
2020/12/26 07:04:13;;;;;;;39.87;33.40;;;;;;;4.63;100.00;96202.19;5054522;28;20618;-90
2020/12/26 07:06:42;;;;;;;38.90;34.13;;;;;;;4.70;100.00;96200.75;5054779;28;20252;-91
2020/12/26 07:09:10;;;;;;;35.50;30.20;;;;;;;4.62;100.00;96192.75;5053444;28;20593;-90
2020/12/26 07:11:47;;;;;;;37.57;31.17;;;;;;;4.75;100.00;96196.84;5053237;28;20286;-92
2020/12/26 07:14:31;;;;;;;34.70;26.30;;;;;;;4.80;100.00;96187.81;5053055;28;20288;-91
2020/12/26 07:16:59;;;;;;;38.27;29.20;;;;;;;4.87;100.00;96197.59;5054178;28;20224;-94
2020/12/26 07:19:39;;;;;;;60.50;40.63;;;;;;;4.61;100.00;96204.94;5053714;28;20233;-90
2020/12/26 07:22:12;;;;;;;63.13;45.10;;;;;;;4.50;100.00;96200.59;5055845;28;20193;-92
2020/12/26 07:24:40;;;;;;;47.93;38.00;;;;;;;4.55;100.00;96204.59;5053574;28;20237;-91
2020/12/26 07:27:19;;;;;;;45.90;34.90;;;;;;;4.63;100.00;96207.41;5053959;28;20209;-91
2020/12/26 07:29:55;;;;;;;60.27;46.53;;;;;;;4.65;100.00;96206.34;5054111;28;20212;-94
2020/12/26 07:32:57;;;;;;;55.83;42.20;;;;;;;4.80;100.00;96213.84;5055299;28;20190;-90
2020/12/26 07:35:33;;;;;;;44.53;36.70;;;;;;;4.77;100.00;96214.94;5056117;28;20196;-94
2020/12/26 07:38:05;;;;;;;47.17;34.17;;;;;;;5.09;100.00;96222.75;5053970;28;20197;-92
2020/12/26 07:40:36;;;;;;;33.33;26.07;;;;;;;4.98;100.00;96213.19;5055683;28;20190;-91
2020/12/26 07:43:05;;;;;;;34.60;29.27;;;;;;;5.14;100.00;96222.34;5057903;28;20213;-91
2020/12/26 07:45:34;;;;;;;60.83;49.00;;;;;;;5.20;100.00;96219.25;5057829;28;20259;-95
2020/12/26 07:48:02;;;;;;;69.23;51.93;;;;;;;5.11;100.00;96220.00;5049366;28;20229;-90
2020/12/26 07:50:30;;;;;;;59.17;49.47;;;;;;;5.05;100.00;96220.50;5037237;28;20226;-92
2020/12/26 07:52:59;;;;;;;65.40;48.37;;;;;;;5.29;100.00;96215.88;5040752;28;20225;-93
2020/12/26 07:55:27;;;;;;;58.10;45.03;;;;;;;5.23;100.00;96216.41;5039677;28;20203;-92
2020/12/26 07:58:17;;;;;;;63.40;43.73;;;;;;;5.33;100.00;96217.25;5039268;28;20584;-93
2020/12/26 08:00:45;;;;;;;47.30;36.73;;;;;;;5.34;100.00;96213.72;5032242;28;20664;-92
2020/12/26 08:03:13;;;;;;;50.33;37.90;;;;;;;5.46;100.00;96214.47;5040101;28;20268;-94
2020/12/26 08:05:41;;;;;;;49.07;38.20;;;;;;;5.35;100.00;96207.53;5042080;28;20198;-95
2020/12/26 08:08:15;;;;;;;45.67;35.23;;;;;;;5.27;100.00;96202.16;5039060;28;20215;-92
2020/12/26 08:10:42;;;;;;;40.13;30.00;;;;;;;5.40;100.00;96207.16;5041189;28;20206;-96
2020/12/26 08:13:14;;;;;;;42.73;34.83;;;;;;;5.37;100.00;96207.41;5038834;28;20194;-94
2020/12/26 08:15:41;;;;;;;59.23;44.13;;;;;;;5.24;100.00;96203.22;5041679;28;20183;-93
2020/12/26 08:18:09;;;;;;;46.63;37.03;;;;;;;5.23;100.00;96213.78;5040688;28;20578;-91
2020/12/26 08:20:37;;;;;;;53.87;42.43;;;;;;;5.26;100.00;96213.50;5038071;28;20199;-95
2020/12/26 08:23:04;;;;;;;54.47;44.33;;;;;;;5.20;100.00;96220.06;5038908;28;20194;-94
2020/12/26 08:25:32;;;;;;;60.10;43.60;;;;;;;5.29;100.00;96218.47;5037477;28;20203;-95
2020/12/26 08:27:59;;;;;;;50.30;37.47;;;;;;;5.33;100.00;96213.84;5039707;28;20282;-96
2020/12/26 08:30:28;;;;;;;44.23;32.37;;;;;;;5.35;100.00;96212.75;5037582;28;20297;-93
2020/12/26 08:33:09;;;;;;;50.30;38.67;;;;;;;5.55;100.00;96211.09;5038208;28;20245;-95
2020/12/26 08:35:40;;;;;;;49.37;37.00;;;;;;;5.72;100.00;96214.91;5040660;28;20229;-92
2020/12/26 08:38:12;;;;;;;40.17;32.77;;;;;;;5.70;100.00;96224.63;5037491;28;20198;-93
2020/12/26 08:40:42;;;;;;;42.80;30.70;;;;;;;5.74;100.00;96228.63;5038228;28;20226;-92
2020/12/26 08:43:13;;;;;;;34.23;25.90;;;;;;;5.54;100.00;96219.03;5037567;28;20255;-92
2020/12/26 08:45:40;;;;;;;33.97;27.20;;;;;;;5.60;100.00;96208.91;5036339;28;20214;-93
2020/12/26 08:48:15;;;;;;;38.80;30.67;;;;;;;5.75;100.00;96206.81;5036339;28;20596;-91
2020/12/26 08:50:43;;;;;;;41.57;31.00;;;;;;;5.83;100.00;96201.75;5036252;28;20304;-92
2020/12/26 08:53:11;;;;;;;50.33;39.10;;;;;;;5.98;100.00;96194.44;5035767;28;20230;-91
2020/12/26 08:55:49;;;;;;;38.03;31.20;;;;;;;5.87;100.00;96203.16;5035658;28;20198;-91
2020/12/26 08:58:26;;;;;;;37.27;30.37;;;;;;;5.89;100.00;96203.84;5035198;28;20234;-90
2020/12/26 09:00:55;;;;;;;43.63;33.87;;;;;;;5.82;100.00;96197.50;5036659;28;20285;-94
2020/12/26 09:03:23;;;;;;;45.67;35.20;;;;;;;5.88;100.00;96196.97;5036969;28;20664;-90
2020/12/26 09:08:37;;;;;;;47.97;36.03;;;;;;;5.99;100.00;96200.47;4977244;28;20201;-92
2020/12/26 09:11:10;;;;;;;41.43;33.60;;;;;;;6.00;100.00;96199.53;5026133;28;20226;-96
2020/12/26 09:13:38;;;;;;;40.10;31.93;;;;;;;5.94;100.00;96195.66;5036221;28;20202;-91
2020/12/26 09:16:09;;;;;;;59.67;46.67;;;;;;;6.00;100.00;96199.53;5034862;28;20195;-92
2020/12/26 09:18:41;;;;;;;33.97;29.23;;;;;;;6.04;100.00;96211.34;5035522;28;20194;-89
2020/12/26 09:21:21;;;;;;;26.80;23.60;;;;;;;6.09;100.00;96219.59;5035705;28;20187;-94
2020/12/26 09:23:48;;;;;;;30.63;25.40;;;;;;;6.12;100.00;96214.94;5037807;28;20237;-96
2020/12/26 09:26:17;;;;;;;28.57;23.67;;;;;;;6.21;100.00;96205.50;5038466;28;20199;-92
2020/12/26 09:28:55;;;;;;;29.40;23.23;;;;;;;6.35;100.00;96210.34;5035193;28;20217;-93
2020/12/26 09:31:23;;;;;;;21.90;18.90;;;;;;;6.44;100.00;96211.31;5036153;28;20277;-95
2020/12/26 09:33:51;;;;;;;36.07;28.27;;;;;;;6.44;100.00;96208.69;5035275;28;20198;-91
2020/12/26 09:36:20;;;;;;;39.70;28.63;;;;;;;6.43;100.00;96207.06;5039386;28;20629;-96
2020/12/26 09:38:48;;;;;;;49.93;40.80;;;;;;;6.40;100.00;96202.91;5038446;28;20678;-96
2020/12/26 09:41:18;;;;;;;72.20;58.53;;;;;;;6.36;100.00;96201.53;5044624;28;20199;-96
2020/12/26 09:43:46;;;;;;;47.47;39.73;;;;;;;6.38;100.00;96199.63;5037433;28;20599;-96
2020/12/26 09:46:14;;;;;;;56.00;45.70;;;;;;;6.40;100.00;96202.91;5039490;28;20730;-95
2020/12/26 09:48:41;;;;;;;69.70;56.00;;;;;;;6.52;100.00;96195.00;5036553;28;20221;-96
2020/12/26 09:51:14;;;;;;;60.77;46.97;;;;;;;6.55;100.00;96194.72;5035950;28;20260;-93
2020/12/26 09:53:42;;;;;;;50.80;39.77;;;;;;;6.65;100.00;96201.59;5038301;28;20222;-94
2020/12/26 09:56:10;;;;;;;38.53;31.13;;;;;;;6.59;100.00;96201.31;5037007;28;20202;-91
2020/12/26 09:58:37;;;;;;;36.20;28.40;;;;;;;6.66;100.00;96207.66;5038125;28;20187;-90
2020/12/26 10:01:04;;;;;;;35.30;26.60;;;;;;;6.76;100.00;96203.28;5037344;28;20264;-91
2020/12/26 10:03:30;;;;;;;33.87;28.43;;;;;;;6.85;100.00;96191.16;5038386;28;20198;-95
2020/12/26 10:05:57;;;;;;;29.83;24.60;;;;;;;6.88;100.00;96178.63;5041035;28;20195;-95
2020/12/26 10:08:24;;;;;;;24.77;21.37;;;;;;;6.87;100.00;96187.44;5036522;28;20199;-91
2020/12/26 10:10:52;;;;;;;27.97;24.37;;;;;;;6.98;100.00;96183.88;5037802;28;20281;-94
2020/12/26 10:13:19;;;;;;;28.67;25.57;;;;;;;7.06;100.00;96167.50;5035078;28;20281;-94
2020/12/26 10:18:49;;;;;;;29.93;25.10;;;;;;;7.21;100.00;96167.91;4980055;28;20207;-95
2020/12/26 10:21:16;;;;;;;28.20;24.60;;;;;;;7.24;100.00;96178.91;4976383;28;20208;-95
2020/12/26 10:23:43;;;;;;;32.83;29.37;;;;;;;7.28;100.00;96182.06;5036411;28;20235;-94
2020/12/26 10:26:11;;;;;;;44.97;37.47;;;;;;;7.32;100.00;96171.19;5036510;28;20214;-93
2020/12/26 10:28:38;;;;;;;45.33;37.87;;;;;;;7.32;100.00;96176.41;5038385;28;20218;-96
2020/12/26 10:31:05;;;;;;;36.97;32.27;;;;;;;7.33;100.00;96175.44;5037068;28;20284;-91
2020/12/26 10:33:33;;;;;;;34.23;27.83;;;;;;;7.49;100.00;96168.81;5035772;28;20199;-96
2020/12/26 10:36:02;;;;;;;41.43;34.67;;;;;;;7.42;100.00;96180.81;5038086;28;20202;-94
2020/12/26 10:38:29;;;;;;;37.47;30.00;;;;;;;7.52;100.00;96174.56;5035590;28;20749;-93
2020/12/26 10:40:56;;;;;;;28.93;22.40;;;;;;;7.63;100.00;96182.25;5033988;28;20206;-93
2020/12/26 10:43:24;;;;;;;30.57;25.30;;;;;;;7.70;100.00;96182.50;5033880;28;20289;-91
2020/12/26 10:45:50;;;;;;;20.93;18.57;;;;;;;7.71;100.00;96167.63;5034373;28;20209;-95
2020/12/26 10:48:17;;;;;;;22.67;19.60;;;;;;;7.72;100.00;96159.63;5034246;28;20281;-93
2020/12/26 10:50:44;;;;;;;22.67;20.13;;;;;;;7.78;100.00;96153.81;5033978;28;20317;-93
2020/12/26 10:53:11;;;;;;;26.67;21.90;;;;;;;7.81;100.00;96153.53;5035956;28;20211;-95
2020/12/26 10:55:38;;;;;;;28.13;25.13;;;;;;;7.89;100.00;96144.16;5036896;28;20210;-93
2020/12/26 10:58:05;;;;;;;31.73;27.13;;;;;;;7.89;100.00;96141.53;5037322;28;20203;-94
2020/12/26 11:00:35;;;;;;;42.77;32.90;;;;;;;7.81;100.00;96148.31;5036300;28;20226;-94
2020/12/26 11:03:02;;;;;;;48.10;35.00;;;;;;;7.83;100.00;96156.03;5038319;28;20285;-95
2020/12/26 11:05:29;;;;;;;25.60;22.83;;;;;;;7.67;100.00;96158.41;5036711;28;20199;-94
2020/12/26 11:11:22;;;;;;;28.30;23.03;;;;;;;7.68;100.00;96163.50;5030892;28;20230;-94
2020/12/26 11:13:49;;;;;;;25.67;20.80;;;;;;;7.71;100.00;96165.84;5038561;28;20206;-96
2020/12/26 11:16:18;;;;;;;22.37;19.17;;;;;;;7.73;100.00;96166.53;5034952;28;20194;-93
2020/12/26 11:18:46;;;;;;;22.13;18.27;;;;;;;7.62;100.00;96179.78;5035449;28;20195;-96
2020/12/26 11:21:17;;;;;;;23.13;19.27;;;;;;;7.71;100.00;96167.63;5035244;28;20206;-96
2020/12/26 11:23:45;;;;;;;25.83;21.00;;;;;;;7.78;100.00;96164.28;5034095;28;20241;-93
2020/12/26 11:26:13;;;;;;;41.10;33.70;;;;;;;7.83;100.00;96169.94;5037594;28;20195;-96
2020/12/26 11:28:40;;;;;;;41.40;35.37;;;;;;;7.94;100.00;96158.44;5037566;28;20214;-96
2020/12/26 11:31:07;;;;;;;46.57;36.40;;;;;;;8.03;100.00;96147.09;5039697;28;20222;-95
2020/12/26 11:33:35;;;;;;;38.77;34.30;;;;;;;8.11;100.00;96146.38;5035141;28;20252;-94
2020/12/26 11:36:02;;;;;;;37.70;31.90;;;;;;;8.27;100.00;96141.31;5036302;28;20202;-95
2020/12/26 11:38:28;;;;;;;45.37;35.00;;;;;;;8.24;100.00;96140.78;5033140;28;20254;-92
2020/12/26 11:40:55;;;;;;;58.63;44.67;;;;;;;8.30;100.00;96148.06;5034512;28;20289;-94
2020/12/26 11:43:22;;;;;;;46.10;38.90;;;;;;;8.19;100.00;96141.22;5039957;28;20202;-96